Time;durP1;ratioP1;P1;durP2;ratioP2;P2;SDS_P1;SDS_P2;PMS_P1;PMS_P2;Temp;Humidity;BMP_temperature;BMP_pressure;BME280_temperature;BME280_humidity;BME280_pressure;Samples;Min_cycle;Max_cycle;Signal;HPM_P1;HPM_P2
2021/04/18 00:01:32;;;;;;;0.38;0.10;;;21.00;36.30;;;;;;5017997;28;20029;-49
2021/04/18 00:04:16;;;;;;;1.85;0.15;;;21.10;36.30;;;;;;5035127;28;20140;-50
2021/04/18 00:06:43;;;;;;;0.90;0.20;;;21.00;36.30;;;;;;5035690;28;20490;-48
2021/04/18 00:09:13;;;;;;;0.63;0.30;;;21.00;36.40;;;;;;5035835;28;20039;-51
2021/04/18 00:11:39;;;;;;;2.25;0.20;;;21.00;36.30;;;;;;5039232;28;20064;-48
2021/04/18 00:14:25;;;;;;;2.25;0.32;;;21.00;36.30;;;;;;5040485;28;20094;-50
2021/04/18 00:16:52;;;;;;;1.45;0.13;;;21.00;36.30;;;;;;5021334;28;20102;-50
2021/04/18 00:19:18;;;;;;;0.45;0.13;;;21.00;36.30;;;;;;5036669;28;20417;-46
2021/04/18 00:21:45;;;;;;;1.02;0.20;;;21.00;36.40;;;;;;5033400;28;20021;-49
2021/04/18 00:24:11;;;;;;;0.80;0.20;;;21.00;36.30;;;;;;5031657;28;20033;-50
2021/04/18 00:26:36;;;;;;;0.43;0.10;;;21.00;36.30;;;;;;5033123;28;20923;-50
2021/04/18 00:29:05;;;;;;;0.25;0.10;;;21.00;36.30;;;;;;5035755;28;20033;-49
2021/04/18 00:31:31;;;;;;;0.50;0.13;;;21.00;36.30;;;;;;5034855;28;20036;-51
2021/04/18 00:33:59;;;;;;;0.95;0.10;;;21.00;36.30;;;;;;5032962;28;20593;-48
2021/04/18 00:36:25;;;;;;;0.30;0.10;;;20.90;36.30;;;;;;5033945;28;20037;-47
2021/04/18 00:39:09;;;;;;;0.82;0.30;;;20.90;36.30;;;;;;5034751;28;20102;-49
2021/04/18 00:41:34;;;;;;;0.40;0.20;;;20.90;36.30;;;;;;5036708;28;20025;-45
2021/04/18 00:44:00;;;;;;;1.10;0.20;;;20.90;36.30;;;;;;5016254;28;20022;-48
2021/04/18 00:46:26;;;;;;;1.45;0.30;;;20.90;36.30;;;;;;5013531;28;20052;-46
2021/04/18 00:48:51;;;;;;;0.88;0.38;;;20.90;36.30;;;;;;5035042;28;20030;-49
2021/04/18 00:51:17;;;;;;;0.52;0.28;;;20.90;36.30;;;;;;5034340;28;20037;-48
2021/04/18 00:53:42;;;;;;;0.70;0.30;;;20.90;36.30;;;;;;5032890;28;20033;-49
2021/04/18 00:56:09;;;;;;;1.02;0.20;;;20.90;36.30;;;;;;5034644;28;20108;-50
2021/04/18 00:58:35;;;;;;;0.43;0.10;;;20.90;36.30;;;;;;5033286;28;20024;-45
2021/04/18 01:01:03;;;;;;;2.05;0.10;;;20.90;36.30;;;;;;5032498;28;20030;-49
2021/04/18 01:03:28;;;;;;;1.70;0.20;;;20.90;36.30;;;;;;5031194;28;20041;-49
2021/04/18 01:06:12;;;;;;;0.75;0.20;;;20.90;36.30;;;;;;5034492;28;20063;-48
2021/04/18 01:08:38;;;;;;;0.63;0.10;;;20.90;36.30;;;;;;5014379;28;20712;-49
2021/04/18 01:11:04;;;;;;;0.75;0.10;;;20.90;36.30;;;;;;5033753;28;20775;-48
2021/04/18 01:13:29;;;;;;;1.15;0.20;;;20.90;36.30;;;;;;5034176;28;20398;-49
2021/04/18 01:15:55;;;;;;;0.60;0.20;;;20.90;36.30;;;;;;5035173;28;20380;-48
2021/04/18 01:18:21;;;;;;;1.08;0.10;;;20.80;36.20;;;;;;5033458;28;20037;-48
2021/04/18 01:20:46;;;;;;;0.95;0.30;;;20.90;36.30;;;;;;5036080;28;20098;-50
2021/04/18 01:23:12;;;;;;;0.40;0.20;;;20.90;36.30;;;;;;5032548;28;20032;-49
2021/04/18 01:25:42;;;;;;;0.80;0.20;;;20.80;36.30;;;;;;5035378;28;20037;-49
2021/04/18 01:28:09;;;;;;;0.77;0.20;;;20.80;36.20;;;;;;5038927;28;20060;-50
2021/04/18 01:30:34;;;;;;;4.15;0.30;;;20.80;36.20;;;;;;5035785;28;20091;-49
2021/04/18 01:33:03;;;;;;;0.60;0.20;;;20.80;36.20;;;;;;5037167;28;20057;-50
2021/04/18 01:35:28;;;;;;;0.77;0.10;;;20.90;36.30;;;;;;5019535;28;20513;-50
2021/04/18 01:37:54;;;;;;;0.70;0.20;;;20.90;36.30;;;;;;5019307;28;20029;-52
2021/04/18 01:40:23;;;;;;;2.13;0.20;;;20.80;36.30;;;;;;5040906;28;20025;-48
2021/04/18 01:42:49;;;;;;;0.70;0.20;;;20.80;36.20;;;;;;5020728;28;20025;-48
2021/04/18 01:45:16;;;;;;;1.08;0.20;;;20.80;36.20;;;;;;5037923;28;20029;-49
2021/04/18 01:47:42;;;;;;;0.75;0.20;;;20.80;36.80;;;;;;5037185;28;20108;-47
2021/04/18 01:50:11;;;;;;;0.30;0.10;;;20.80;36.20;;;;;;5019618;28;20151;-47
2021/04/18 01:52:37;;;;;;;1.05;0.20;;;20.80;36.20;;;;;;5036910;28;20087;-49
2021/04/18 01:55:05;;;;;;;1.02;0.20;;;20.80;36.20;;;;;;5037698;28;20423;-47
2021/04/18 01:57:32;;;;;;;0.60;0.17;;;20.80;36.20;;;;;;5037295;28;20045;-49
2021/04/18 01:59:58;;;;;;;0.57;0.13;;;20.80;36.20;;;;;;5036934;28;20064;-48
2021/04/18 02:02:23;;;;;;;0.40;0.13;;;20.80;36.20;;;;;;5038445;28;20021;-48
2021/04/18 02:04:49;;;;;;;1.17;0.20;;;20.80;36.20;;;;;;5035215;28;20021;-48
2021/04/18 02:07:14;;;;;;;0.50;0.20;;;20.70;36.20;;;;;;5020064;28;20041;-48
2021/04/18 02:09:40;;;;;;;1.02;0.20;;;20.70;36.20;;;;;;5016664;28;20048;-51
2021/04/18 02:12:09;;;;;;;0.77;0.10;;;20.70;36.20;;;;;;5036920;28;20068;-49
2021/04/18 02:14:35;;;;;;;0.57;0.20;;;20.80;36.20;;;;;;5033269;28;20108;-46
2021/04/18 02:17:02;;;;;;;0.40;0.10;;;20.70;36.20;;;;;;5038596;28;20033;-48
2021/04/18 02:19:28;;;;;;;0.57;0.20;;;20.70;36.10;;;;;;5018397;28;20041;-49
2021/04/18 02:21:54;;;;;;;1.17;0.30;;;20.70;36.10;;;;;;5017302;28;20037;-49
2021/04/18 02:24:20;;;;;;;0.45;0.13;;;20.80;36.20;;;;;;5034768;28;20052;-50
2021/04/18 02:26:46;;;;;;;0.50;0.10;;;20.70;36.10;;;;;;5035993;28;20111;-50
2021/04/18 02:29:12;;;;;;;0.50;0.15;;;20.70;36.10;;;;;;5019203;28;20040;-49
2021/04/18 02:31:38;;;;;;;0.95;0.17;;;20.70;36.20;;;;;;5039613;28;20037;-49
2021/04/18 02:34:03;;;;;;;0.95;0.10;;;20.70;36.10;;;;;;5035687;28;20052;-49
2021/04/18 02:36:30;;;;;;;0.57;0.20;;;20.70;36.10;;;;;;5035410;28;20053;-48
2021/04/18 02:38:56;;;;;;;0.82;0.20;;;20.70;36.10;;;;;;5035099;28;20033;-49
2021/04/18 02:41:22;;;;;;;0.85;0.20;;;20.70;36.10;;;;;;5036242;28;20078;-47
2021/04/18 02:43:47;;;;;;;0.57;0.20;;;20.70;36.10;;;;;;5035502;28;20548;-49
2021/04/18 02:46:13;;;;;;;0.68;0.20;;;20.70;36.10;;;;;;5036072;28;20030;-48
2021/04/18 02:48:39;;;;;;;0.57;0.20;;;20.70;36.10;;;;;;5019537;28;20379;-49
2021/04/18 02:51:04;;;;;;;0.40;0.10;;;20.70;36.10;;;;;;5037548;28;20095;-48
2021/04/18 02:53:30;;;;;;;0.40;0.10;;;20.70;36.10;;;;;;5014259;28;20064;-47
2021/04/18 02:55:56;;;;;;;0.93;0.17;;;20.70;36.10;;;;;;5034632;28;20047;-49
2021/04/18 02:58:21;;;;;;;0.28;0.10;;;20.70;36.10;;;;;;5034495;28;20138;-49
2021/04/18 03:00:47;;;;;;;1.25;0.20;;;20.70;36.10;;;;;;5037298;28;20043;-48
2021/04/18 03:03:12;;;;;;;0.32;0.20;;;20.70;36.20;;;;;;5035223;28;20060;-49
2021/04/18 03:05:38;;;;;;;0.82;0.20;;;20.70;36.10;;;;;;5036735;28;20106;-50
2021/04/18 03:08:05;;;;;;;0.98;0.20;;;20.70;36.10;;;;;;5035347;28;20030;-48
2021/04/18 03:10:30;;;;;;;1.00;0.10;;;20.70;36.10;;;;;;5033962;28;20048;-47
2021/04/18 03:12:57;;;;;;;0.50;0.10;;;20.60;36.10;;;;;;5036718;28;20037;-50
2021/04/18 03:15:23;;;;;;;0.40;0.10;;;20.70;36.10;;;;;;5034411;28;20691;-50
2021/04/18 03:17:49;;;;;;;1.15;0.20;;;20.70;36.10;;;;;;5035726;28;20033;-47
2021/04/18 03:20:15;;;;;;;0.50;0.10;;;20.70;36.10;;;;;;5037103;28;20017;-50
2021/04/18 03:22:40;;;;;;;0.43;0.20;;;20.60;36.60;;;;;;5035805;28;20043;-48
2021/04/18 03:25:07;;;;;;;1.35;0.20;;;20.70;36.10;;;;;;5034440;28;20029;-48
2021/04/18 03:27:33;;;;;;;2.63;0.28;;;20.60;36.10;;;;;;5036841;28;20032;-49
2021/04/18 03:29:59;;;;;;;1.45;0.20;;;20.60;36.10;;;;;;5033358;28;20520;-49
2021/04/18 03:32:24;;;;;;;0.65;0.10;;;20.60;36.10;;;;;;5036319;28;20030;-51
2021/04/18 03:34:50;;;;;;;0.55;0.10;;;20.60;36.60;;;;;;5035640;28;20037;-49
2021/04/18 03:37:16;;;;;;;0.55;0.10;;;20.60;36.10;;;;;;5031149;28;20064;-50
2021/04/18 03:39:42;;;;;;;0.88;0.10;;;20.60;36.10;;;;;;5034331;28;20397;-47
2021/04/18 03:42:08;;;;;;;0.40;0.10;;;20.60;36.10;;;;;;5036587;28;20033;-49
2021/04/18 03:44:34;;;;;;;0.43;0.13;;;20.60;36.10;;;;;;5035917;28;20045;-48
2021/04/18 03:47:00;;;;;;;1.45;0.25;;;20.60;36.10;;;;;;5038235;28;20529;-48
2021/04/18 03:49:26;;;;;;;0.63;0.15;;;20.60;36.10;;;;;;5031831;28;20071;-49
2021/04/18 03:51:51;;;;;;;0.30;0.10;;;20.60;36.10;;;;;;5037817;28;20119;-49
2021/04/18 03:54:18;;;;;;;0.85;0.20;;;20.60;36.10;;;;;;5040790;28;20107;-49
2021/04/18 03:56:44;;;;;;;0.90;0.20;;;20.60;36.10;;;;;;5042366;28;20068;-50
2021/04/18 03:59:10;;;;;;;1.05;0.10;;;20.60;36.20;;;;;;5037138;28;20457;-48
2021/04/18 04:01:35;;;;;;;0.25;0.10;;;20.60;36.10;;;;;;5037726;28;20086;-50
2021/04/18 04:04:01;;;;;;;0.77;0.10;;;20.60;36.10;;;;;;5034616;28;20032;-48
2021/04/18 04:06:27;;;;;;;0.68;0.13;;;20.60;36.10;;;;;;5035811;28;20025;-48
2021/04/18 04:08:52;;;;;;;0.25;0.10;;;20.60;36.10;;;;;;5033177;28;20044;-49
2021/04/18 04:11:18;;;;;;;1.05;0.20;;;20.60;36.10;;;;;;5035167;28;20043;-48
2021/04/18 04:13:43;;;;;;;0.68;0.10;;;20.60;36.10;;;;;;5035130;28;20112;-48
2021/04/18 04:16:09;;;;;;;0.55;0.10;;;20.60;36.10;;;;;;5035977;28;20025;-49
2021/04/18 04:18:35;;;;;;;0.70;0.20;;;20.60;36.10;;;;;;5034529;28;20163;-49
2021/04/18 04:21:00;;;;;;;0.28;0.17;;;20.60;36.10;;;;;;5035689;28;20078;-50
2021/04/18 04:23:26;;;;;;;0.90;0.20;;;20.50;36.10;;;;;;5030348;28;20021;-48
2021/04/18 04:25:51;;;;;;;0.47;0.10;;;20.60;36.10;;;;;;5035377;28;20025;-51
2021/04/18 04:28:17;;;;;;;0.63;0.10;;;20.60;36.20;;;;;;5030674;28;20044;-51
2021/04/18 04:30:42;;;;;;;0.95;0.17;;;20.60;36.10;;;;;;5035734;28;20033;-49
2021/04/18 04:33:08;;;;;;;1.55;0.20;;;20.60;36.10;;;;;;5034502;28;20402;-45
2021/04/18 04:35:33;;;;;;;0.57;0.30;;;20.50;36.10;;;;;;5035852;28;20047;-50
2021/04/18 04:37:59;;;;;;;0.47;0.10;;;20.50;36.10;;;;;;5033982;28;20651;-49
2021/04/18 04:40:25;;;;;;;0.63;0.10;;;20.50;36.10;;;;;;5033640;28;20096;-48
2021/04/18 04:42:52;;;;;;;0.68;0.20;;;20.50;36.10;;;;;;5033357;28;20028;-50
2021/04/18 04:45:18;;;;;;;1.30;0.20;;;20.60;36.10;;;;;;5031574;28;20094;-50
2021/04/18 04:47:43;;;;;;;0.52;0.20;;;20.50;36.10;;;;;;5015442;28;20029;-50
2021/04/18 04:50:10;;;;;;;0.32;0.13;;;20.50;36.10;;;;;;5031915;28;20035;-49
2021/04/18 04:52:36;;;;;;;0.65;0.10;;;20.60;36.10;;;;;;5033387;28;20034;-48
2021/04/18 04:55:02;;;;;;;0.50;0.10;;;20.50;36.10;;;;;;5034748;28;20036;-49
2021/04/18 04:57:27;;;;;;;0.45;0.15;;;20.50;36.00;;;;;;5034240;28;20029;-48
2021/04/18 04:59:53;;;;;;;0.70;0.30;;;20.50;36.10;;;;;;5034793;28;20022;-51
2021/04/18 05:02:18;;;;;;;0.85;0.10;;;20.50;36.10;;;;;;5035997;28;20025;-50
2021/04/18 05:04:44;;;;;;;0.88;0.20;;;20.50;36.10;;;;;;5039573;28;20108;-49
2021/04/18 05:07:10;;;;;;;1.15;0.20;;;20.50;36.10;;;;;;5040783;28;20044;-46
2021/04/18 05:09:35;;;;;;;0.68;0.20;;;20.50;36.10;;;;;;5037770;28;20029;-46
2021/04/18 05:12:03;;;;;;;1.33;0.20;;;20.50;36.10;;;;;;5038323;28;20109;-47
2021/04/18 05:14:29;;;;;;;0.73;0.20;;;20.50;36.10;;;;;;5035264;28;20031;-49
2021/04/18 05:16:55;;;;;;;0.80;0.20;;;20.50;36.10;;;;;;5040752;28;20108;-49
2021/04/18 05:19:20;;;;;;;0.43;0.10;;;20.50;36.10;;;;;;5038136;28;20022;-49
2021/04/18 05:21:46;;;;;;;0.90;0.30;;;20.50;36.10;;;;;;5038273;28;20029;-49
2021/04/18 05:24:12;;;;;;;0.45;0.10;;;20.50;36.10;;;;;;5034573;28;20034;-51
2021/04/18 05:26:37;;;;;;;0.50;0.20;;;20.50;36.10;;;;;;5037915;28;20108;-49
2021/04/18 05:29:03;;;;;;;0.70;0.20;;;20.50;36.20;;;;;;5038700;28;20125;-49
2021/04/18 05:31:28;;;;;;;1.35;0.20;;;20.50;36.20;;;;;;5037236;28;20033;-48
2021/04/18 05:33:54;;;;;;;1.05;0.20;;;20.50;36.20;;;;;;5037481;28;20037;-49
2021/04/18 05:36:19;;;;;;;0.95;0.20;;;20.50;36.20;;;;;;5040022;28;20025;-49
2021/04/18 05:38:45;;;;;;;0.73;0.20;;;20.50;36.20;;;;;;5043948;28;20032;-50
2021/04/18 05:41:11;;;;;;;1.58;0.30;;;20.50;36.10;;;;;;5041415;28;20026;-49
2021/04/18 05:43:36;;;;;;;4.40;0.30;;;20.50;36.10;;;;;;5037541;28;20502;-50
2021/04/18 05:46:02;;;;;;;3.17;0.30;;;20.40;36.00;;;;;;5042389;28;20037;-48
2021/04/18 05:48:28;;;;;;;2.95;0.30;;;20.40;36.00;;;;;;5035010;28;20033;-48
2021/04/18 05:50:53;;;;;;;3.28;0.40;;;20.40;36.00;;;;;;5056835;22;20079;-41
2021/04/18 05:53:19;;;;;;;1.27;0.30;;;20.50;36.10;;;;;;5042452;28;20048;-44
2021/04/18 05:56:04;;;;;;;1.02;0.20;;;20.50;36.10;;;;;;5048417;28;20045;-46
2021/04/18 05:58:29;;;;;;;1.92;0.20;;;20.50;36.10;;;;;;5047197;28;20029;-44
2021/04/18 06:01:13;;;;;;;1.67;0.30;;;20.50;36.10;;;;;;5050968;28;20035;-45
2021/04/18 06:03:39;;;;;;;4.97;0.32;;;20.40;36.10;;;;;;5045593;28;20107;-47
2021/04/18 06:06:05;;;;;;;0.60;0.30;;;20.50;36.10;;;;;;5045977;28;20025;-42
2021/04/18 06:08:31;;;;;;;2.45;0.60;;;20.40;36.00;;;;;;5044815;28;20099;-45
2021/04/18 06:10:56;;;;;;;1.80;0.38;;;20.40;35.90;;;;;;5045728;28;20033;-43
2021/04/18 06:13:22;;;;;;;0.95;0.45;;;20.40;36.00;;;;;;5044445;28;20392;-46
2021/04/18 06:16:07;;;;;;;2.85;0.65;;;20.50;36.10;;;;;;5045941;28;20407;-46
2021/04/18 06:18:33;;;;;;;1.20;0.50;;;20.40;36.00;;;;;;5046221;28;20393;-45
2021/04/18 06:20:59;;;;;;;0.80;0.30;;;20.50;36.10;;;;;;5051290;28;20402;-45
2021/04/18 06:23:24;;;;;;;1.10;0.40;;;20.50;36.00;;;;;;5045178;28;20021;-45
2021/04/18 06:26:08;;;;;;;4.97;0.50;;;20.50;35.90;;;;;;5043174;28;20039;-42
2021/04/18 06:28:34;;;;;;;1.23;0.30;;;20.50;36.00;;;;;;5043561;28;20029;-44
2021/04/18 06:30:59;;;;;;;1.58;0.57;;;20.50;35.90;;;;;;5043959;28;20029;-44
2021/04/18 06:33:25;;;;;;;1.55;0.65;;;20.50;35.90;;;;;;5046479;28;20062;-44
2021/04/18 06:35:51;;;;;;;1.40;0.28;;;20.50;35.90;;;;;;5046537;28;20091;-44
2021/04/18 06:38:17;;;;;;;1.63;0.43;;;20.50;35.90;;;;;;5046367;28;20516;-42
2021/04/18 06:41:02;;;;;;;1.20;0.30;;;20.50;35.80;;;;;;5047014;28;20087;-43
2021/04/18 06:43:27;;;;;;;1.42;0.47;;;20.50;35.90;;;;;;5044864;28;20025;-44
2021/04/18 06:46:16;;;;;;;1.25;0.40;;;20.50;35.80;;;;;;5048384;28;20040;-45
2021/04/18 06:48:43;;;;;;;3.55;0.60;;;20.50;35.80;;;;;;5043640;28;20044;-45
2021/04/18 06:51:09;;;;;;;2.33;0.60;;;20.50;35.80;;;;;;5040857;28;20471;-45
2021/04/18 06:53:53;;;;;;;1.23;0.40;;;20.50;35.70;;;;;;5042752;28;20068;-45
2021/04/18 06:56:19;;;;;;;2.15;0.45;;;20.50;35.60;;;;;;5036622;28;20117;-43
2021/04/18 06:58:44;;;;;;;2.58;0.40;;;20.50;35.70;;;;;;5046699;28;21943;-46
2021/04/18 07:01:10;;;;;;;2.65;0.50;;;20.50;35.70;;;;;;5026086;28;20099;-43
2021/04/18 07:04:14;;;;;;;0.52;0.20;;;20.50;35.70;;;;;;5047844;28;20101;-43
2021/04/18 07:06:47;;;;;;;1.00;0.30;;;20.50;35.70;;;;;;5043141;28;20053;-45
2021/04/18 07:09:14;;;;;;;1.95;0.43;;;20.50;35.60;;;;;;5045886;28;20136;-45
2021/04/18 07:12:02;;;;;;;1.75;0.40;;;20.50;35.70;;;;;;5048256;28;20082;-44
2021/04/18 07:14:33;;;;;;;1.88;0.40;;;20.50;35.60;;;;;;5044195;28;20372;-46
2021/04/18 07:17:17;;;;;;;1.20;0.30;;;20.50;35.60;;;;;;5046129;28;20075;-42
2021/04/18 07:19:46;;;;;;;1.10;0.30;;;20.50;35.60;;;;;;5045899;28;20021;-43
2021/04/18 07:22:16;;;;;;;1.40;0.30;;;20.50;35.70;;;;;;5043358;28;20033;-46
2021/04/18 07:24:48;;;;;;;1.63;0.40;;;20.50;35.60;;;;;;5045373;28;20032;-48
2021/04/18 07:27:13;;;;;;;;;;;20.50;35.70;;;;;;5043477;28;20040;-44
2021/04/18 07:29:59;;;;;;;1.77;0.30;;;20.50;35.60;;;;;;5046866;28;19923;-43
2021/04/18 07:32:28;;;;;;;1.50;0.52;;;20.50;35.60;;;;;;5041272;28;20391;-46
2021/04/18 07:35:31;;;;;;;0.98;0.22;;;20.50;35.70;;;;;;5044325;28;20040;-44
2021/04/18 07:38:17;;;;;;;0.77;0.30;;;20.50;35.70;;;;;;5044952;28;20037;-44
2021/04/18 07:41:28;;;;;;;1.88;0.77;;;20.50;35.80;;;;;;5044722;28;20091;-43
2021/04/18 07:43:53;;;;;;;1.48;0.40;;;20.50;35.90;;;;;;5041221;28;20154;-46
2021/04/18 07:46:20;;;;;;;0.90;0.40;;;20.50;35.90;;;;;;5042709;28;20513;-46
2021/04/18 07:48:56;;;;;;;1.90;0.60;;;20.50;36.00;;;;;;5040742;28;20068;-46
2021/04/18 07:51:23;;;;;;;1.23;0.40;;;20.60;36.00;;;;;;5043524;28;20037;-46
2021/04/18 07:53:51;;;;;;;1.40;0.40;;;20.60;36.00;;;;;;5041693;28;20443;-44
2021/04/18 07:56:17;;;;;;;1.25;0.50;;;20.50;35.90;;;;;;5043756;28;20029;-44
2021/04/18 07:59:01;;;;;;;1.38;0.50;;;20.50;35.90;;;;;;5039848;28;20036;-43
2021/04/18 08:01:27;;;;;;;1.20;0.43;;;20.50;35.90;;;;;;5046955;28;20389;-43
2021/04/18 08:04:12;;;;;;;1.65;0.63;;;20.50;36.00;;;;;;5043896;28;20059;-43
2021/04/18 08:06:41;;;;;;;2.05;1.17;;;20.50;36.00;;;;;;5040639;28;20635;-43
2021/04/18 08:09:23;;;;;;;1.13;0.60;;;20.50;35.90;;;;;;5045787;28;20028;-44
2021/04/18 08:12:14;;;;;;;2.47;0.73;;;20.50;36.00;;;;;;5041522;28;20044;-44
2021/04/18 08:14:41;;;;;;;;;;;20.50;36.00;;;;;;5047419;28;20051;-43
2021/04/18 08:17:18;;;;;;;1.55;0.60;;;20.50;35.90;;;;;;5044305;28;19912;-45
2021/04/18 08:20:04;;;;;;;1.67;0.98;;;20.50;35.90;;;;;;5045919;28;20081;-47
2021/04/18 08:23:02;;;;;;;1.92;0.90;;;20.50;35.90;;;;;;5041016;28;20020;-46
2021/04/18 08:25:28;;;;;;;1.38;0.63;;;20.50;36.40;;;;;;5043180;28;20421;-46
2021/04/18 08:27:59;;;;;;;1.42;0.65;;;20.50;35.90;;;;;;5047057;28;20033;-46
2021/04/18 08:30:24;;;;;;;1.05;0.43;;;20.50;35.90;;;;;;5042746;28;20057;-44
2021/04/18 08:32:51;;;;;;;1.48;0.70;;;20.50;36.00;;;;;;5039547;28;20068;-47
2021/04/18 08:35:20;;;;;;;2.50;0.70;;;20.50;36.00;;;;;;5043578;28;20040;-46
2021/04/18 08:38:10;;;;;;;1.02;0.60;;;20.50;36.00;;;;;;5043100;28;20466;-45
2021/04/18 08:40:36;;;;;;;2.15;0.70;;;20.50;36.00;;;;;;5046844;28;20061;-47
2021/04/18 08:43:24;;;;;;;1.88;0.70;;;20.50;36.00;;;;;;5054183;28;20060;-46
2021/04/18 08:45:53;;;;;;;1.70;0.63;;;20.50;35.90;;;;;;5031714;28;20045;-46
2021/04/18 08:48:18;;;;;;;2.22;1.20;;;20.50;36.00;;;;;;5048836;28;20440;-45
2021/04/18 08:51:08;;;;;;;1.42;0.93;;;20.50;36.00;;;;;;5051667;28;20039;-43
2021/04/18 08:53:53;;;;;;;2.15;0.75;;;20.50;36.00;;;;;;5045010;28;20375;-44
2021/04/18 08:56:19;;;;;;;1.83;1.20;;;20.50;36.00;;;;;;5045599;28;20039;-43
2021/04/18 08:58:44;;;;;;;2.05;0.77;;;20.50;35.90;;;;;;5048566;28;20024;-43
2021/04/18 09:01:11;;;;;;;1.48;1.10;;;20.50;36.00;;;;;;5046554;28;20443;-43
2021/04/18 09:03:39;;;;;;;1.70;1.00;;;20.50;36.00;;;;;;5043577;28;20030;-45
2021/04/18 09:06:13;;;;;;;1.38;0.95;;;20.60;36.00;;;;;;5045962;28;20052;-46
2021/04/18 09:08:57;;;;;;;2.13;0.95;;;20.60;35.90;;;;;;5047299;28;20079;-43
2021/04/18 09:11:23;;;;;;;1.30;1.10;;;20.60;35.90;;;;;;5051560;28;20029;-45
2021/04/18 09:13:57;;;;;;;5.35;1.65;;;20.60;35.90;;;;;;5046097;28;20029;-44
2021/04/18 09:16:29;;;;;;;1.52;0.90;;;20.60;35.80;;;;;;5049040;28;20025;-45
2021/04/18 09:19:28;;;;;;;1.50;1.10;;;20.60;35.80;;;;;;5046976;28;20044;-46
2021/04/18 09:21:57;;;;;;;1.70;0.93;;;20.60;35.80;;;;;;5044043;28;20029;-43
2021/04/18 09:24:23;;;;;;;2.58;1.52;;;20.60;35.90;;;;;;5046207;28;20059;-44
2021/04/18 09:27:14;;;;;;;2.13;1.10;;;20.60;35.80;;;;;;5046733;28;20186;-44
2021/04/18 09:30:04;;;;;;;2.30;1.50;;;20.60;35.80;;;;;;5049115;28;20470;-44
2021/04/18 09:32:44;;;;;;;1.70;1.02;;;20.60;35.80;;;;;;5048259;28;20045;-45
2021/04/18 09:35:10;;;;;;;2.33;1.33;;;20.60;35.80;;;;;;5043843;28;20990;-45
2021/04/18 09:37:56;;;;;;;2.05;1.13;;;20.60;35.80;;;;;;5044216;28;20122;-45
2021/04/18 09:40:25;;;;;;;2.85;1.20;;;20.60;35.80;;;;;;5047780;28;20355;-45
2021/04/18 09:42:52;;;;;;;1.33;0.95;;;20.60;35.90;;;;;;5048070;28;20039;-45
2021/04/18 09:45:25;;;;;;;1.38;1.15;;;20.60;35.80;;;;;;5045858;28;20052;-46
2021/04/18 09:47:57;;;;;;;2.08;0.90;;;20.60;35.80;;;;;;5043758;28;20506;-47
2021/04/18 09:50:31;;;;;;;1.58;0.90;;;20.60;35.80;;;;;;5043180;28;20055;-44
2021/04/18 09:53:18;;;;;;;1.35;0.93;;;20.60;35.80;;;;;;5047724;28;20393;-47
2021/04/18 09:55:54;;;;;;;1.60;1.05;;;20.70;35.80;;;;;;5043354;28;20404;-44
2021/04/18 09:58:35;;;;;;;2.75;0.90;;;20.70;35.80;;;;;;5042731;28;20065;-42
2021/04/18 10:01:01;;;;;;;2.72;1.05;;;20.70;35.80;;;;;;5044852;28;20025;-45
2021/04/18 10:03:38;;;;;;;1.75;1.15;;;20.70;35.70;;;;;;5026622;28;20067;-43
2021/04/18 10:06:04;;;;;;;1.42;1.00;;;20.70;35.80;;;;;;5043669;28;20543;-44
2021/04/18 10:08:32;;;;;;;2.15;1.00;;;20.80;35.80;;;;;;5045536;28;20067;-45
2021/04/18 10:11:07;;;;;;;1.63;0.88;;;20.80;35.80;;;;;;5045170;28;20037;-43
2021/04/18 10:13:59;;;;;;;1.65;1.23;;;20.80;35.80;;;;;;5027169;28;20042;-44
2021/04/18 10:16:36;;;;;;;1.40;0.95;;;20.80;35.80;;;;;;5042705;28;20029;-44
2021/04/18 10:19:25;;;;;;;1.35;0.93;;;20.80;35.80;;;;;;5045943;28;20037;-45
2021/04/18 10:22:10;;;;;;;1.92;0.85;;;20.80;35.80;;;;;;5050344;28;20951;-47
2021/04/18 10:24:43;;;;;;;1.40;0.75;;;20.80;35.80;;;;;;5043574;28;20021;-44
2021/04/18 10:27:11;;;;;;;0.85;0.57;;;20.80;35.80;;;;;;5046928;28;20026;-43
2021/04/18 10:29:41;;;;;;;1.55;0.65;;;20.80;35.80;;;;;;5045631;28;20029;-45
2021/04/18 10:32:07;;;;;;;2.08;0.45;;;20.80;35.80;;;;;;5048765;28;20454;-45
2021/04/18 10:34:52;;;;;;;1.25;0.60;;;20.80;35.90;;;;;;5047433;28;20500;-47
2021/04/18 10:37:19;;;;;;;1.00;0.77;;;20.80;35.90;;;;;;5046827;28;20510;-45
2021/04/18 10:40:04;;;;;;;1.08;0.50;;;20.80;35.90;;;;;;5043868;28;20104;-44
2021/04/18 10:42:30;;;;;;;1.23;1.00;;;20.80;35.90;;;;;;5047629;28;20033;-45
2021/04/18 10:44:55;;;;;;;1.10;0.70;;;20.80;35.80;;;;;;5040456;28;20363;-44
2021/04/18 10:47:21;;;;;;;1.42;0.75;;;20.80;35.80;;;;;;5048027;28;20068;-46
2021/04/18 10:49:49;;;;;;;1.52;0.80;;;20.90;35.90;;;;;;5046050;28;20126;-46
2021/04/18 10:52:14;;;;;;;1.05;0.77;;;20.90;35.90;;;;;;5044437;28;20112;-42
2021/04/18 10:54:59;;;;;;;1.17;0.70;;;20.90;35.90;;;;;;5045082;28;20032;-45
2021/04/18 10:57:26;;;;;;;1.10;0.90;;;20.90;35.90;;;;;;5045528;28;20022;-44
2021/04/18 11:00:11;;;;;;;2.03;0.77;;;20.90;35.90;;;;;;5042763;28;20056;-44
2021/04/18 11:02:36;;;;;;;1.40;0.65;;;20.90;35.90;;;;;;5048417;28;20083;-41
2021/04/18 11:05:02;;;;;;;1.92;0.75;;;20.90;35.90;;;;;;5047148;28;20060;-45
2021/04/18 11:07:29;;;;;;;0.93;0.50;;;20.90;36.00;;;;;;5025613;28;20079;-45
2021/04/18 11:09:54;;;;;;;2.05;0.73;;;20.90;35.90;;;;;;5043934;28;20051;-47
2021/04/18 11:12:20;;;;;;;1.60;0.88;;;20.90;36.00;;;;;;5043838;28;20034;-42
2021/04/18 11:14:47;;;;;;;0.93;0.50;;;20.90;36.00;;;;;;5044571;28;20033;-42
2021/04/18 11:17:13;;;;;;;1.25;0.60;;;20.90;35.90;;;;;;5045855;28;20688;-42
2021/04/18 11:19:38;;;;;;;2.08;1.20;;;20.90;35.90;;;;;;5043465;28;20032;-43
2021/04/18 11:22:04;;;;;;;2.00;0.60;;;20.90;36.00;;;;;;5048079;28;20047;-44
2021/04/18 11:24:29;;;;;;;4.00;1.45;;;20.90;36.00;;;;;;5041806;28;20037;-47
2021/04/18 11:26:55;;;;;;;2.08;0.77;;;20.90;36.00;;;;;;5029680;28;20068;-46
2021/04/18 11:29:21;;;;;;;1.70;0.95;;;20.90;36.00;;;;;;5042769;28;20036;-43
2021/04/18 11:31:47;;;;;;;1.48;0.85;;;20.90;36.00;;;;;;5042825;28;20029;-44
2021/04/18 11:34:13;;;;;;;2.63;0.82;;;20.90;36.00;;;;;;5045084;28;20032;-44
2021/04/18 11:36:39;;;;;;;1.30;0.40;;;20.90;36.00;;;;;;5045587;28;20039;-44
2021/04/18 11:39:05;;;;;;;1.90;0.90;;;20.90;36.00;;;;;;5029436;28;20022;-46
2021/04/18 11:41:32;;;;;;;3.03;0.80;;;21.00;36.10;;;;;;5045242;28;20087;-47
2021/04/18 11:43:59;;;;;;;4.00;1.02;;;20.90;36.00;;;;;;5042797;28;20052;-44
2021/04/18 11:46:26;;;;;;;2.08;1.00;;;20.90;36.00;;;;;;5047229;28;20021;-43
2021/04/18 11:48:52;;;;;;;2.92;1.33;;;20.90;36.00;;;;;;5047406;28;20098;-46
2021/04/18 11:51:17;;;;;;;2.33;1.27;;;21.00;36.10;;;;;;5057841;22;20489;-48
2021/04/18 11:53:43;;;;;;;2.40;0.90;;;20.90;36.10;;;;;;5024151;28;20078;-48
2021/04/18 11:56:08;;;;;;;2.22;1.10;;;21.00;36.10;;;;;;5040949;28;20396;-48
2021/04/18 11:58:34;;;;;;;1.77;0.80;;;20.90;36.10;;;;;;5041782;28;20740;-46
2021/04/18 12:01:00;;;;;;;2.08;0.80;;;21.00;36.20;;;;;;5039321;28;20056;-47
2021/04/18 12:03:25;;;;;;;3.40;1.02;;;21.00;36.20;;;;;;5026700;28;20045;-46
2021/04/18 12:05:53;;;;;;;4.28;1.08;;;21.00;36.20;;;;;;5024281;28;20019;-44
2021/04/18 12:08:19;;;;;;;2.83;0.70;;;21.00;36.30;;;;;;5010272;28;20119;-47
2021/04/18 12:10:44;;;;;;;1.92;0.80;;;21.00;36.40;;;;;;5024424;28;20087;-49
2021/04/18 12:13:10;;;;;;;2.88;0.90;;;21.00;36.30;;;;;;5030003;28;20432;-45
2021/04/18 12:15:36;;;;;;;2.88;0.70;;;21.00;36.20;;;;;;5031855;28;20363;-48
2021/04/18 12:18:01;;;;;;;2.50;0.93;;;21.00;36.20;;;;;;5033387;28;20030;-48
2021/04/18 12:20:28;;;;;;;2.97;0.85;;;21.00;36.30;;;;;;5036432;28;20021;-46
2021/04/18 12:22:53;;;;;;;3.38;0.80;;;21.00;36.20;;;;;;5034071;28;20494;-49
2021/04/18 12:25:19;;;;;;;3.47;1.05;;;21.10;36.20;;;;;;5035972;28;20031;-45
2021/04/18 12:27:44;;;;;;;4.95;1.23;;;21.00;36.20;;;;;;5037731;28;20033;-45
2021/04/18 12:30:11;;;;;;;2.70;1.33;;;21.00;36.20;;;;;;5036260;28;20029;-42
2021/04/18 12:32:37;;;;;;;3.50;0.80;;;21.00;36.20;;;;;;5035168;28;20059;-47
2021/04/18 12:35:05;;;;;;;2.25;0.98;;;21.00;36.20;;;;;;5035629;28;20049;-43
2021/04/18 12:37:30;;;;;;;2.92;1.25;;;21.00;36.20;;;;;;5036887;28;20375;-46
2021/04/18 12:39:56;;;;;;;2.95;0.90;;;21.00;36.20;;;;;;5034685;28;20022;-50
2021/04/18 12:42:22;;;;;;;3.30;1.23;;;21.00;36.20;;;;;;5033365;28;20017;-44
2021/04/18 12:44:50;;;;;;;2.42;1.00;;;21.10;36.20;;;;;;5018443;28;21001;-49
2021/04/18 12:47:17;;;;;;;2.35;0.73;;;21.10;36.20;;;;;;5037309;28;20708;-45
2021/04/18 12:49:43;;;;;;;2.35;0.70;;;21.10;36.20;;;;;;5036824;28;20456;-46
2021/04/18 12:52:09;;;;;;;2.72;1.02;;;21.10;36.30;;;;;;5033518;28;20094;-42
2021/04/18 12:54:35;;;;;;;1.83;0.80;;;21.10;36.30;;;;;;5035591;28;20033;-43
2021/04/18 12:57:00;;;;;;;4.82;1.10;;;21.10;36.20;;;;;;5037083;28;20079;-46
2021/04/18 12:59:26;;;;;;;1.83;0.85;;;21.10;36.20;;;;;;5020619;28;20030;-46